sensor_id;sensor_type;location;lat;lon;timestamp;pressure;altitude;pressure_sealevel;temperature;humidity
80693;BME280;70055;39.436;-77.514;2023-06-14T00:00:05;98397.74;;;21.42;28.81
80693;BME280;70055;39.436;-77.514;2023-06-14T00:02:33;98394.11;;;21.36;29.58
80693;BME280;70055;39.436;-77.514;2023-06-14T00:05:02;98386.99;;;20.90;30.57
80693;BME280;70055;39.436;-77.514;2023-06-14T00:07:35;98380.88;;;20.36;31.27
80693;BME280;70055;39.436;-77.514;2023-06-14T00:10:05;98376.75;;;20.63;32.18
80693;BME280;70055;39.436;-77.514;2023-06-14T00:12:33;98376.13;;;20.55;32.46
80693;BME280;70055;39.436;-77.514;2023-06-14T00:15:02;98372.31;;;20.39;32.22
80693;BME280;70055;39.436;-77.514;2023-06-14T00:17:30;98370.32;;;20.23;32.26
80693;BME280;70055;39.436;-77.514;2023-06-14T00:19:58;98369.44;;;20.49;32.25
80693;BME280;70055;39.436;-77.514;2023-06-14T00:22:26;98371.11;;;19.68;32.80
80693;BME280;70055;39.436;-77.514;2023-06-14T00:24:54;98367.57;;;19.57;33.98
80693;BME280;70055;39.436;-77.514;2023-06-14T00:27:23;98362.93;;;19.94;32.83
80693;BME280;70055;39.436;-77.514;2023-06-14T00:29:51;98368.49;;;19.39;33.15
80693;BME280;70055;39.436;-77.514;2023-06-14T00:32:20;98367.00;;;18.97;33.63
80693;BME280;70055;39.436;-77.514;2023-06-14T00:34:48;98363.03;;;19.21;33.57
80693;BME280;70055;39.436;-77.514;2023-06-14T00:37:17;98356.26;;;19.18;33.33
80693;BME280;70055;39.436;-77.514;2023-06-14T00:39:44;98350.60;;;19.51;32.80
80693;BME280;70055;39.436;-77.514;2023-06-14T00:42:24;98353.16;;;19.91;32.56
80693;BME280;70055;39.436;-77.514;2023-06-14T00:44:52;98363.44;;;19.02;35.38
80693;BME280;70055;39.436;-77.514;2023-06-14T00:47:21;98361.19;;;20.17;34.47
80693;BME280;70055;39.436;-77.514;2023-06-14T00:49:50;98360.40;;;19.50;34.57
80693;BME280;70055;39.436;-77.514;2023-06-14T00:52:19;98355.29;;;19.62;33.50
80693;BME280;70055;39.436;-77.514;2023-06-14T00:54:48;98348.42;;;19.90;33.18
80693;BME280;70055;39.436;-77.514;2023-06-14T00:57:16;98341.67;;;19.46;32.95
80693;BME280;70055;39.436;-77.514;2023-06-14T00:59:48;98344.79;;;18.85;33.78
80693;BME280;70055;39.436;-77.514;2023-06-14T01:02:17;98334.26;;;20.00;32.95
80693;BME280;70055;39.436;-77.514;2023-06-14T01:04:47;98332.81;;;19.95;33.02
80693;BME280;70055;39.436;-77.514;2023-06-14T01:07:25;98330.70;;;19.96;32.91
80693;BME280;70055;39.436;-77.514;2023-06-14T01:10:06;98331.79;;;19.36;32.57
80693;BME280;70055;39.436;-77.514;2023-06-14T01:12:43;98328.90;;;19.52;32.44
80693;BME280;70055;39.436;-77.514;2023-06-14T01:15:13;98328.49;;;20.12;32.34
80693;BME280;70055;39.436;-77.514;2023-06-14T01:17:43;98326.53;;;19.87;32.14
80693;BME280;70055;39.436;-77.514;2023-06-14T01:20:13;98331.15;;;19.84;32.84
80693;BME280;70055;39.436;-77.514;2023-06-14T01:22:50;98329.18;;;20.46;31.31
80693;BME280;70055;39.436;-77.514;2023-06-14T01:25:19;98335.80;;;19.84;32.44
80693;BME280;70055;39.436;-77.514;2023-06-14T01:27:49;98341.49;;;19.13;33.26
80693;BME280;70055;39.436;-77.514;2023-06-14T01:30:17;98346.46;;;20.31;31.42
80693;BME280;70055;39.436;-77.514;2023-06-14T01:32:50;98346.21;;;19.93;33.00
80693;BME280;70055;39.436;-77.514;2023-06-14T01:35:18;98348.15;;;19.65;32.99
80693;BME280;70055;39.436;-77.514;2023-06-14T01:37:49;98351.50;;;20.05;32.40
80693;BME280;70055;39.436;-77.514;2023-06-14T01:40:18;98355.63;;;19.83;32.22
80693;BME280;70055;39.436;-77.514;2023-06-14T01:42:49;98361.44;;;19.98;32.61
80693;BME280;70055;39.436;-77.514;2023-06-14T01:45:19;98362.84;;;19.90;32.66
80693;BME280;70055;39.436;-77.514;2023-06-14T01:47:47;98361.73;;;19.41;33.58
80693;BME280;70055;39.436;-77.514;2023-06-14T01:50:16;98360.43;;;19.37;32.98
80693;BME280;70055;39.436;-77.514;2023-06-14T01:52:47;98361.12;;;20.53;31.69
80693;BME280;70055;39.436;-77.514;2023-06-14T01:55:18;98359.68;;;20.26;32.96
80693;BME280;70055;39.436;-77.514;2023-06-14T01:57:47;98358.99;;;19.70;31.95
80693;BME280;70055;39.436;-77.514;2023-06-14T02:00:18;98360.61;;;20.03;32.81
80693;BME280;70055;39.436;-77.514;2023-06-14T02:02:47;98362.41;;;20.29;32.54
80693;BME280;70055;39.436;-77.514;2023-06-14T02:05:16;98364.17;;;20.42;32.33
80693;BME280;70055;39.436;-77.514;2023-06-14T02:07:45;98370.20;;;20.46;34.79
80693;BME280;70055;39.436;-77.514;2023-06-14T02:10:14;98361.99;;;20.65;32.85
80693;BME280;70055;39.436;-77.514;2023-06-14T02:12:44;98359.97;;;20.76;32.77
80693;BME280;70055;39.436;-77.514;2023-06-14T02:15:14;98361.60;;;19.99;31.74
80693;BME280;70055;39.436;-77.514;2023-06-14T02:17:43;98360.77;;;20.67;32.65
80693;BME280;70055;39.436;-77.514;2023-06-14T02:20:12;98362.55;;;19.86;31.96
80693;BME280;70055;39.436;-77.514;2023-06-14T02:22:41;98352.89;;;21.29;30.89
80693;BME280;70055;39.436;-77.514;2023-06-14T02:25:11;98347.76;;;20.18;33.39
80693;BME280;70055;39.436;-77.514;2023-06-14T02:27:43;98350.82;;;20.04;35.22
80693;BME280;70055;39.436;-77.514;2023-06-14T02:30:15;98352.15;;;19.91;38.10
80693;BME280;70055;39.436;-77.514;2023-06-14T02:32:44;98358.80;;;20.56;38.95
80693;BME280;70055;39.436;-77.514;2023-06-14T02:35:12;98358.75;;;20.40;39.62
80693;BME280;70055;39.436;-77.514;2023-06-14T02:37:46;98365.07;;;20.24;39.72
80693;BME280;70055;39.436;-77.514;2023-06-14T02:40:14;98365.25;;;20.09;39.13
80693;BME280;70055;39.436;-77.514;2023-06-14T02:42:41;98360.96;;;20.30;37.84
80693;BME280;70055;39.436;-77.514;2023-06-14T02:45:10;98361.63;;;19.40;38.19
80693;BME280;70055;39.436;-77.514;2023-06-14T02:47:40;98368.59;;;18.65;38.60
80693;BME280;70055;39.436;-77.514;2023-06-14T02:50:08;98364.21;;;19.24;37.66
80693;BME280;70055;39.436;-77.514;2023-06-14T02:52:37;98362.53;;;18.88;37.90
80693;BME280;70055;39.436;-77.514;2023-06-14T02:55:06;98363.62;;;19.01;36.76
80693;BME280;70055;39.436;-77.514;2023-06-14T02:57:35;98360.03;;;18.24;38.78
80693;BME280;70055;39.436;-77.514;2023-06-14T03:00:05;98357.81;;;18.45;38.65
80693;BME280;70055;39.436;-77.514;2023-06-14T03:02:32;98357.00;;;18.54;37.48
80693;BME280;70055;39.436;-77.514;2023-06-14T03:05:01;98355.65;;;18.60;37.14
80693;BME280;70055;39.436;-77.514;2023-06-14T03:07:29;98347.87;;;18.36;37.62
80693;BME280;70055;39.436;-77.514;2023-06-14T03:09:58;98341.67;;;18.18;37.44
80693;BME280;70055;39.436;-77.514;2023-06-14T03:12:25;98336.87;;;18.73;37.31
80693;BME280;70055;39.436;-77.514;2023-06-14T03:14:54;98332.43;;;18.47;37.45
80693;BME280;70055;39.436;-77.514;2023-06-14T03:17:22;98331.56;;;18.45;36.84
80693;BME280;70055;39.436;-77.514;2023-06-14T03:19:51;98328.02;;;18.88;36.59
80693;BME280;70055;39.436;-77.514;2023-06-14T03:22:19;98327.94;;;18.25;36.86
80693;BME280;70055;39.436;-77.514;2023-06-14T03:24:47;98326.74;;;18.38;37.24
80693;BME280;70055;39.436;-77.514;2023-06-14T03:27:14;98323.07;;;18.21;37.14
80693;BME280;70055;39.436;-77.514;2023-06-14T03:29:42;98325.75;;;18.25;37.34
80693;BME280;70055;39.436;-77.514;2023-06-14T03:32:10;98330.44;;;17.29;41.04
80693;BME280;70055;39.436;-77.514;2023-06-14T03:34:39;98329.77;;;17.14;42.39
80693;BME280;70055;39.436;-77.514;2023-06-14T03:37:07;98335.03;;;15.56;45.03
80693;BME280;70055;39.436;-77.514;2023-06-14T03:39:35;98332.66;;;16.55;43.21
80693;BME280;70055;39.436;-77.514;2023-06-14T03:42:03;98328.33;;;16.55;43.34
80693;BME280;70055;39.436;-77.514;2023-06-14T03:44:32;98327.52;;;16.33;42.71
80693;BME280;70055;39.436;-77.514;2023-06-14T03:47:00;98327.51;;;16.37;43.19
80693;BME280;70055;39.436;-77.514;2023-06-14T03:49:27;98325.19;;;16.60;43.03
80693;BME280;70055;39.436;-77.514;2023-06-14T03:51:56;98319.49;;;16.56;42.71
80693;BME280;70055;39.436;-77.514;2023-06-14T03:54:25;98317.99;;;16.43;42.55
80693;BME280;70055;39.436;-77.514;2023-06-14T03:56:52;98308.90;;;16.44;41.40
80693;BME280;70055;39.436;-77.514;2023-06-14T03:59:20;98305.76;;;16.81;41.94
80693;BME280;70055;39.436;-77.514;2023-06-14T04:01:49;98304.82;;;16.63;40.79
80693;BME280;70055;39.436;-77.514;2023-06-14T04:04:17;98303.33;;;16.74;40.58
80693;BME280;70055;39.436;-77.514;2023-06-14T04:06:45;98307.26;;;16.85;40.31
80693;BME280;70055;39.436;-77.514;2023-06-14T04:09:13;98310.66;;;15.88;45.76
80693;BME280;70055;39.436;-77.514;2023-06-14T04:11:41;98310.29;;;15.59;44.97
80693;BME280;70055;39.436;-77.514;2023-06-14T04:14:09;98307.94;;;16.10;43.51
80693;BME280;70055;39.436;-77.514;2023-06-14T04:16:37;98301.82;;;16.14;42.43
80693;BME280;70055;39.436;-77.514;2023-06-14T04:19:06;98295.06;;;16.23;42.09
80693;BME280;70055;39.436;-77.514;2023-06-14T04:21:35;98288.57;;;16.31;42.48
80693;BME280;70055;39.436;-77.514;2023-06-14T04:24:04;98284.26;;;16.52;42.79
80693;BME280;70055;39.436;-77.514;2023-06-14T04:26:33;98285.94;;;16.42;44.34
80693;BME280;70055;39.436;-77.514;2023-06-14T04:29:00;98287.82;;;14.87;47.67
80693;BME280;70055;39.436;-77.514;2023-06-14T04:31:29;98290.57;;;14.72;48.19
80693;BME280;70055;39.436;-77.514;2023-06-14T04:33:57;98304.35;;;13.22;54.45
80693;BME280;70055;39.436;-77.514;2023-06-14T04:36:25;98329.30;;;12.30;55.11
80693;BME280;70055;39.436;-77.514;2023-06-14T04:38:53;98320.15;;;14.78;48.92
80693;BME280;70055;39.436;-77.514;2023-06-14T04:41:21;98308.03;;;15.13;47.19
80693;BME280;70055;39.436;-77.514;2023-06-14T04:43:50;98294.31;;;14.35;49.43
80693;BME280;70055;39.436;-77.514;2023-06-14T04:46:18;98296.89;;;15.41;46.22
80693;BME280;70055;39.436;-77.514;2023-06-14T04:48:46;98307.92;;;15.83;46.93
80693;BME280;70055;39.436;-77.514;2023-06-14T04:51:14;98303.13;;;15.28;46.18
80693;BME280;70055;39.436;-77.514;2023-06-14T04:53:42;98302.93;;;14.48;47.55
80693;BME280;70055;39.436;-77.514;2023-06-14T04:56:10;98294.14;;;13.98;49.08
80693;BME280;70055;39.436;-77.514;2023-06-14T04:58:38;98286.87;;;15.12;46.04
80693;BME280;70055;39.436;-77.514;2023-06-14T05:01:06;98278.58;;;15.31;45.89
80693;BME280;70055;39.436;-77.514;2023-06-14T05:03:33;98280.66;;;15.15;45.81
80693;BME280;70055;39.436;-77.514;2023-06-14T05:06:02;98278.05;;;16.00;44.28
80693;BME280;70055;39.436;-77.514;2023-06-14T05:08:29;98277.86;;;15.77;44.83
80693;BME280;70055;39.436;-77.514;2023-06-14T05:10:58;98279.89;;;15.17;47.04
80693;BME280;70055;39.436;-77.514;2023-06-14T05:13:25;98290.70;;;14.22;48.54
80693;BME280;70055;39.436;-77.514;2023-06-14T05:15:53;98279.81;;;15.28;47.26
80693;BME280;70055;39.436;-77.514;2023-06-14T05:18:21;98282.56;;;14.26;48.49
80693;BME280;70055;39.436;-77.514;2023-06-14T05:20:49;98278.46;;;14.92;46.83
80693;BME280;70055;39.436;-77.514;2023-06-14T05:23:17;98275.49;;;15.35;45.70
80693;BME280;70055;39.436;-77.514;2023-06-14T05:25:46;98274.05;;;15.40;45.55
80693;BME280;70055;39.436;-77.514;2023-06-14T05:28:14;98276.63;;;15.28;45.88
80693;BME280;70055;39.436;-77.514;2023-06-14T05:30:42;98283.74;;;14.96;46.37
80693;BME280;70055;39.436;-77.514;2023-06-14T05:33:11;98280.70;;;14.86;46.64
80693;BME280;70055;39.436;-77.514;2023-06-14T05:35:39;98281.76;;;14.59;47.33
80693;BME280;70055;39.436;-77.514;2023-06-14T05:38:07;98283.76;;;15.20;46.50
80693;BME280;70055;39.436;-77.514;2023-06-14T05:40:35;98286.26;;;14.50;48.69
80693;BME280;70055;39.436;-77.514;2023-06-14T05:43:04;98283.14;;;15.18;48.34
80693;BME280;70055;39.436;-77.514;2023-06-14T05:45:31;98280.40;;;14.92;48.76
80693;BME280;70055;39.436;-77.514;2023-06-14T05:48:00;98280.81;;;14.97;48.11
80693;BME280;70055;39.436;-77.514;2023-06-14T05:50:28;98273.10;;;15.15;47.20
80693;BME280;70055;39.436;-77.514;2023-06-14T05:52:56;98273.77;;;14.36;49.16
80693;BME280;70055;39.436;-77.514;2023-06-14T05:55:24;98270.71;;;14.94;47.40
80693;BME280;70055;39.436;-77.514;2023-06-14T05:57:52;98261.86;;;15.42;46.66
80693;BME280;70055;39.436;-77.514;2023-06-14T06:00:21;98261.56;;;15.18;46.36
80693;BME280;70055;39.436;-77.514;2023-06-14T06:02:49;98259.01;;;14.98;47.51
80693;BME280;70055;39.436;-77.514;2023-06-14T06:05:17;98252.58;;;15.08;46.94
80693;BME280;70055;39.436;-77.514;2023-06-14T06:07:45;98246.51;;;15.08;47.08
80693;BME280;70055;39.436;-77.514;2023-06-14T06:10:13;98243.27;;;14.86;47.25
80693;BME280;70055;39.436;-77.514;2023-06-14T06:12:41;98235.63;;;15.51;45.80
80693;BME280;70055;39.436;-77.514;2023-06-14T06:15:11;98235.55;;;15.72;45.35
80693;BME280;70055;39.436;-77.514;2023-06-14T06:17:40;98236.82;;;14.52;50.99
80693;BME280;70055;39.436;-77.514;2023-06-14T06:20:08;98231.43;;;14.77;50.12
80693;BME280;70055;39.436;-77.514;2023-06-14T06:22:36;98221.33;;;15.64;46.74
80693;BME280;70055;39.436;-77.514;2023-06-14T06:25:06;98222.17;;;14.35;49.44
80693;BME280;70055;39.436;-77.514;2023-06-14T06:27:35;98223.48;;;15.49;47.15
80693;BME280;70055;39.436;-77.514;2023-06-14T06:30:03;98230.15;;;16.12;46.34
80693;BME280;70055;39.436;-77.514;2023-06-14T06:32:31;98242.91;;;15.00;52.16
80693;BME280;70055;39.436;-77.514;2023-06-14T06:34:59;98241.28;;;16.09;50.83
80693;BME280;70055;39.436;-77.514;2023-06-14T06:37:27;98240.44;;;16.64;49.89
80693;BME280;70055;39.436;-77.514;2023-06-14T06:39:55;98240.51;;;16.06;49.47
80693;BME280;70055;39.436;-77.514;2023-06-14T06:42:23;98237.38;;;15.03;52.19
80693;BME280;70055;39.436;-77.514;2023-06-14T06:44:52;98237.98;;;13.91;54.32
80693;BME280;70055;39.436;-77.514;2023-06-14T06:47:20;98231.31;;;14.15;54.35
80693;BME280;70055;39.436;-77.514;2023-06-14T06:49:47;98221.51;;;15.22;51.11
80693;BME280;70055;39.436;-77.514;2023-06-14T06:52:15;98218.46;;;15.16;50.66
80693;BME280;70055;39.436;-77.514;2023-06-14T06:54:43;98219.01;;;15.60;49.67
80693;BME280;70055;39.436;-77.514;2023-06-14T06:57:11;98216.69;;;15.80;49.34
80693;BME280;70055;39.436;-77.514;2023-06-14T06:59:39;98211.03;;;15.49;49.96
80693;BME280;70055;39.436;-77.514;2023-06-14T07:02:07;98209.93;;;16.08;49.91
80693;BME280;70055;39.436;-77.514;2023-06-14T07:04:36;98193.55;;;16.01;50.47
80693;BME280;70055;39.436;-77.514;2023-06-14T07:07:03;98179.50;;;15.18;53.40
80693;BME280;70055;39.436;-77.514;2023-06-14T07:09:31;98172.60;;;15.59;51.43
80693;BME280;70055;39.436;-77.514;2023-06-14T07:11:59;98164.58;;;14.91;52.88
80693;BME280;70055;39.436;-77.514;2023-06-14T07:14:27;98158.66;;;15.50;50.37
80693;BME280;70055;39.436;-77.514;2023-06-14T07:16:55;98157.08;;;16.95;47.58
80693;BME280;70055;39.436;-77.514;2023-06-14T07:19:23;98152.57;;;16.99;47.41
80693;BME280;70055;39.436;-77.514;2023-06-14T07:21:51;98157.25;;;15.66;51.64
80693;BME280;70055;39.436;-77.514;2023-06-14T07:24:20;98157.08;;;16.47;50.68
80693;BME280;70055;39.436;-77.514;2023-06-14T07:26:48;98154.42;;;16.78;48.17
80693;BME280;70055;39.436;-77.514;2023-06-14T07:29:16;98155.18;;;16.35;49.33
80693;BME280;70055;39.436;-77.514;2023-06-14T07:31:44;98156.55;;;15.45;53.54
80693;BME280;70055;39.436;-77.514;2023-06-14T07:34:12;98159.90;;;14.84;54.80
80693;BME280;70055;39.436;-77.514;2023-06-14T07:36:40;98158.94;;;15.02;53.87
80693;BME280;70055;39.436;-77.514;2023-06-14T07:39:08;98149.17;;;15.28;52.80
80693;BME280;70055;39.436;-77.514;2023-06-14T07:41:36;98141.67;;;15.58;50.76
80693;BME280;70055;39.436;-77.514;2023-06-14T07:44:04;98136.14;;;16.25;49.51
80693;BME280;70055;39.436;-77.514;2023-06-14T07:46:33;98138.06;;;15.92;48.44
80693;BME280;70055;39.436;-77.514;2023-06-14T07:49:01;98132.33;;;15.75;48.82
80693;BME280;70055;39.436;-77.514;2023-06-14T07:51:29;98132.96;;;15.35;50.60
80693;BME280;70055;39.436;-77.514;2023-06-14T07:53:58;98134.60;;;17.56;46.25
80693;BME280;70055;39.436;-77.514;2023-06-14T07:56:26;98143.52;;;16.56;47.85
80693;BME280;70055;39.436;-77.514;2023-06-14T07:58:54;98149.42;;;16.57;48.99
80693;BME280;70055;39.436;-77.514;2023-06-14T08:01:22;98146.30;;;16.44;49.01
80693;BME280;70055;39.436;-77.514;2023-06-14T08:03:50;98143.72;;;16.29;49.95
80693;BME280;70055;39.436;-77.514;2023-06-14T08:06:18;98138.91;;;16.84;49.47
80693;BME280;70055;39.436;-77.514;2023-06-14T08:08:46;98132.25;;;16.08;50.93
80693;BME280;70055;39.436;-77.514;2023-06-14T08:11:14;98131.07;;;14.44;55.16
80693;BME280;70055;39.436;-77.514;2023-06-14T08:13:42;98136.86;;;14.61;54.81
80693;BME280;70055;39.436;-77.514;2023-06-14T08:16:10;98128.03;;;15.87;51.15
80693;BME280;70055;39.436;-77.514;2023-06-14T08:18:40;98118.65;;;16.16;50.62
80693;BME280;70055;39.436;-77.514;2023-06-14T08:21:08;98117.58;;;15.78;51.54
80693;BME280;70055;39.436;-77.514;2023-06-14T08:23:36;98115.99;;;16.01;50.28
80693;BME280;70055;39.436;-77.514;2023-06-14T08:26:05;98117.88;;;14.70;54.41
80693;BME280;70055;39.436;-77.514;2023-06-14T08:28:33;98111.95;;;15.12;52.86
80693;BME280;70055;39.436;-77.514;2023-06-14T08:31:01;98112.97;;;15.42;51.84
80693;BME280;70055;39.436;-77.514;2023-06-14T08:33:28;98106.24;;;15.62;51.11
80693;BME280;70055;39.436;-77.514;2023-06-14T08:35:56;98103.41;;;16.12;50.03
80693;BME280;70055;39.436;-77.514;2023-06-14T08:38:24;98100.31;;;16.23;49.64
80693;BME280;70055;39.436;-77.514;2023-06-14T08:40:53;98097.89;;;16.40;48.71
80693;BME280;70055;39.436;-77.514;2023-06-14T08:43:25;98100.24;;;16.29;48.98
80693;BME280;70055;39.436;-77.514;2023-06-14T08:45:59;98102.25;;;15.87;52.99
80693;BME280;70055;39.436;-77.514;2023-06-14T08:48:28;98102.11;;;15.96;52.87
80693;BME280;70055;39.436;-77.514;2023-06-14T08:50:58;98105.14;;;14.14;58.26
80693;BME280;70055;39.436;-77.514;2023-06-14T08:53:28;98102.94;;;15.52;54.41
80693;BME280;70055;39.436;-77.514;2023-06-14T08:55:56;98099.85;;;16.32;52.11
80693;BME280;70055;39.436;-77.514;2023-06-14T08:58:25;98101.88;;;16.51;51.50
80693;BME280;70055;39.436;-77.514;2023-06-14T09:00:53;98102.29;;;16.31;51.58
80693;BME280;70055;39.436;-77.514;2023-06-14T09:03:22;98106.14;;;16.51;51.32
80693;BME280;70055;39.436;-77.514;2023-06-14T09:05:50;98107.22;;;16.52;51.31
80693;BME280;70055;39.436;-77.514;2023-06-14T09:08:18;98095.69;;;16.33;50.90
80693;BME280;70055;39.436;-77.514;2023-06-14T09:10:46;98100.97;;;16.09;52.01
80693;BME280;70055;39.436;-77.514;2023-06-14T09:13:14;98095.80;;;16.65;51.41
80693;BME280;70055;39.436;-77.514;2023-06-14T09:15:42;98101.13;;;14.78;56.54
80693;BME280;70055;39.436;-77.514;2023-06-14T09:18:10;98084.12;;;15.80;54.48
80693;BME280;70055;39.436;-77.514;2023-06-14T09:20:39;98080.07;;;16.44;51.28
80693;BME280;70055;39.436;-77.514;2023-06-14T09:23:07;98081.50;;;16.05;51.91
80693;BME280;70055;39.436;-77.514;2023-06-14T09:25:42;98083.25;;;15.44;52.14
80693;BME280;70055;39.436;-77.514;2023-06-14T09:28:11;98079.24;;;16.42;50.05
80693;BME280;70055;39.436;-77.514;2023-06-14T09:30:39;98079.59;;;16.01;50.34
80693;BME280;70055;39.436;-77.514;2023-06-14T09:33:07;98078.75;;;15.88;53.22
80693;BME280;70055;39.436;-77.514;2023-06-14T09:35:35;98077.39;;;15.58;52.45
80693;BME280;70055;39.436;-77.514;2023-06-14T09:38:04;98076.59;;;16.73;50.42
80693;BME280;70055;39.436;-77.514;2023-06-14T09:40:35;98077.50;;;16.40;49.72
80693;BME280;70055;39.436;-77.514;2023-06-14T09:43:06;98074.31;;;16.25;49.30
80693;BME280;70055;39.436;-77.514;2023-06-14T09:45:34;98072.68;;;16.49;50.29
80693;BME280;70055;39.436;-77.514;2023-06-14T09:48:03;98075.33;;;14.35;57.29
80693;BME280;70055;39.436;-77.514;2023-06-14T09:50:31;98078.15;;;12.85;60.78
80693;BME280;70055;39.436;-77.514;2023-06-14T09:53:02;98075.61;;;15.05;56.04
80693;BME280;70055;39.436;-77.514;2023-06-14T09:55:31;98076.04;;;15.93;54.23
80693;BME280;70055;39.436;-77.514;2023-06-14T09:58:05;98073.57;;;16.32;52.69
80693;BME280;70055;39.436;-77.514;2023-06-14T10:00:34;98072.61;;;16.77;51.31
80693;BME280;70055;39.436;-77.514;2023-06-14T10:03:10;98073.27;;;16.15;51.52
80693;BME280;70055;39.436;-77.514;2023-06-14T10:05:43;98069.50;;;16.50;51.52
80693;BME280;70055;39.436;-77.514;2023-06-14T10:08:15;98071.05;;;16.33;50.99
80693;BME280;70055;39.436;-77.514;2023-06-14T10:10:43;98068.58;;;16.76;49.95
80693;BME280;70055;39.436;-77.514;2023-06-14T10:13:12;98063.30;;;16.65;50.51
80693;BME280;70055;39.436;-77.514;2023-06-14T10:15:50;98061.87;;;16.83;50.40
80693;BME280;70055;39.436;-77.514;2023-06-14T10:18:27;98054.71;;;16.45;52.63
80693;BME280;70055;39.436;-77.514;2023-06-14T10:21:05;98051.35;;;16.61;51.21
80693;BME280;70055;39.436;-77.514;2023-06-14T10:23:40;98050.24;;;16.52;52.26
80693;BME280;70055;39.436;-77.514;2023-06-14T10:26:13;98049.28;;;16.81;51.80
80693;BME280;70055;39.436;-77.514;2023-06-14T10:28:56;98043.38;;;16.70;53.34
80693;BME280;70055;39.436;-77.514;2023-06-14T10:31:40;98041.64;;;15.45;54.81
80693;BME280;70055;39.436;-77.514;2023-06-14T10:34:09;98046.88;;;16.20;53.56
80693;BME280;70055;39.436;-77.514;2023-06-14T10:36:38;98052.43;;;16.78;52.23
80693;BME280;70055;39.436;-77.514;2023-06-14T10:39:12;98058.07;;;16.81;51.68
80693;BME280;70055;39.436;-77.514;2023-06-14T10:41:42;98057.45;;;16.96;51.65
80693;BME280;70055;39.436;-77.514;2023-06-14T10:45:22;98052.62;;;16.71;52.70
80693;BME280;70055;39.436;-77.514;2023-06-14T10:47:50;98048.10;;;15.55;53.93
80693;BME280;70055;39.436;-77.514;2023-06-14T10:50:19;98044.62;;;16.81;51.43
80693;BME280;70055;39.436;-77.514;2023-06-14T10:52:55;98041.31;;;16.35;52.02
80693;BME280;70055;39.436;-77.514;2023-06-14T10:55:23;98044.70;;;16.20;53.34
80693;BME280;70055;39.436;-77.514;2023-06-14T10:57:53;98049.90;;;14.85;55.13
80693;BME280;70055;39.436;-77.514;2023-06-14T11:00:22;98036.85;;;16.21;54.36
80693;BME280;70055;39.436;-77.514;2023-06-14T11:03:36;98040.04;;;15.92;54.72
80693;BME280;70055;39.436;-77.514;2023-06-14T11:06:14;98038.30;;;15.69;54.89
80693;BME280;70055;39.436;-77.514;2023-06-14T11:09:14;98039.76;;;16.45;54.08
80693;BME280;70055;39.436;-77.514;2023-06-14T11:11:48;98037.06;;;17.12;52.85
80693;BME280;70055;39.436;-77.514;2023-06-14T11:14:18;98038.42;;;17.17;51.90
80693;BME280;70055;39.436;-77.514;2023-06-14T11:16:49;98040.26;;;17.54;51.83
80693;BME280;70055;39.436;-77.514;2023-06-14T11:19:17;98040.52;;;17.24;51.12
80693;BME280;70055;39.436;-77.514;2023-06-14T11:21:48;98039.66;;;16.53;52.96
80693;BME280;70055;39.436;-77.514;2023-06-14T11:24:19;98037.70;;;15.85;54.03
80693;BME280;70055;39.436;-77.514;2023-06-14T11:26:47;98041.95;;;16.39;55.36
80693;BME280;70055;39.436;-77.514;2023-06-14T11:29:17;98042.62;;;16.49;54.22
80693;BME280;70055;39.436;-77.514;2023-06-14T11:31:47;98035.40;;;16.59;54.07
80693;BME280;70055;39.436;-77.514;2023-06-14T11:34:16;98036.49;;;15.55;56.89
80693;BME280;70055;39.436;-77.514;2023-06-14T11:36:45;98041.65;;;16.32;54.05
80693;BME280;70055;39.436;-77.514;2023-06-14T11:39:13;98038.95;;;17.00;54.44
80693;BME280;70055;39.436;-77.514;2023-06-14T11:41:43;98034.06;;;15.79;56.18
80693;BME280;70055;39.436;-77.514;2023-06-14T11:44:12;98034.64;;;15.86;57.04
80693;BME280;70055;39.436;-77.514;2023-06-14T11:46:40;98037.30;;;16.21;56.03
80693;BME280;70055;39.436;-77.514;2023-06-14T11:49:08;98038.66;;;16.49;55.54
80693;BME280;70055;39.436;-77.514;2023-06-14T11:51:36;98032.56;;;16.91;55.09
80693;BME280;70055;39.436;-77.514;2023-06-14T11:54:06;98033.14;;;15.97;56.99
80693;BME280;70055;39.436;-77.514;2023-06-14T11:56:37;98027.88;;;16.96;53.89
80693;BME280;70055;39.436;-77.514;2023-06-14T11:59:05;98025.11;;;15.66;58.25
80693;BME280;70055;39.436;-77.514;2023-06-14T12:01:37;98030.77;;;16.18;56.76
80693;BME280;70055;39.436;-77.514;2023-06-14T12:04:05;98032.73;;;15.36;57.40
80693;BME280;70055;39.436;-77.514;2023-06-14T12:06:33;98035.41;;;16.11;56.08
80693;BME280;70055;39.436;-77.514;2023-06-14T12:09:04;98038.83;;;16.41;56.02
80693;BME280;70055;39.436;-77.514;2023-06-14T12:11:34;98044.20;;;16.50;53.00
80693;BME280;70055;39.436;-77.514;2023-06-14T12:14:04;98044.61;;;15.77;56.78
80693;BME280;70055;39.436;-77.514;2023-06-14T12:16:33;98049.28;;;15.81;58.58
80693;BME280;70055;39.436;-77.514;2023-06-14T12:19:11;98037.10;;;16.15;58.15
80693;BME280;70055;39.436;-77.514;2023-06-14T12:21:40;98033.34;;;15.19;59.02
80693;BME280;70055;39.436;-77.514;2023-06-14T12:24:09;98024.44;;;14.99;59.84
80693;BME280;70055;39.436;-77.514;2023-06-14T12:26:39;98017.96;;;14.77;59.20
80693;BME280;70055;39.436;-77.514;2023-06-14T12:29:07;98003.49;;;14.68;60.29
80693;BME280;70055;39.436;-77.514;2023-06-14T12:31:36;97991.56;;;15.94;57.93
80693;BME280;70055;39.436;-77.514;2023-06-14T12:34:04;97988.31;;;15.59;59.53
80693;BME280;70055;39.436;-77.514;2023-06-14T12:36:32;97985.88;;;15.95;59.15
80693;BME280;70055;39.436;-77.514;2023-06-14T12:39:00;97987.36;;;16.41;57.40
80693;BME280;70055;39.436;-77.514;2023-06-14T12:41:28;97981.12;;;16.81;56.49
80693;BME280;70055;39.436;-77.514;2023-06-14T12:43:56;97972.77;;;15.40;58.92
80693;BME280;70055;39.436;-77.514;2023-06-14T12:46:24;97971.49;;;15.53;59.29
80693;BME280;70055;39.436;-77.514;2023-06-14T12:48:53;97965.68;;;15.43;58.68
80693;BME280;70055;39.436;-77.514;2023-06-14T12:51:21;97965.95;;;14.71;59.07